Time;durP1;ratioP1;P1;durP2;ratioP2;P2;SDS_P1;SDS_P2;PMS_P1;PMS_P2;Temp;Humidity;BMP_temperature;BMP_pressure;BME280_temperature;BME280_humidity;BME280_pressure;Samples;Min_cycle;Max_cycle;Signal;HPM_P1;HPM_P2
2021/05/25 00:00:18;;;;;;;4.88;1.00;;;10.20;99.90;;;;;;5032805;28;20918;-58
2021/05/25 00:02:45;;;;;;;3.90;0.90;;;10.20;99.90;;;;;;5046136;28;20393;-55
2021/05/25 00:05:14;;;;;;;3.70;0.90;;;10.00;99.90;;;;;;5040897;28;20397;-51
2021/05/25 00:07:40;;;;;;;4.13;1.20;;;10.10;99.90;;;;;;5048131;28;20400;-53
2021/05/25 00:10:07;;;;;;;4.50;1.10;;;9.90;99.90;;;;;;5030995;28;20481;-52
2021/05/25 00:12:33;;;;;;;4.70;1.05;;;9.80;99.90;;;;;;5048569;28;20382;-51
2021/05/25 00:14:59;;;;;;;4.00;1.40;;;9.80;99.90;;;;;;5056662;28;20523;-51
2021/05/25 00:17:25;;;;;;;3.83;1.10;;;9.80;99.90;;;;;;5036326;28;20494;-52
2021/05/25 00:19:50;;;;;;;4.28;1.00;;;9.60;99.90;;;;;;5052273;28;20413;-51
2021/05/25 00:22:16;;;;;;;5.10;1.20;;;9.60;99.90;;;;;;5054572;28;20898;-59
2021/05/25 00:24:42;;;;;;;4.57;1.23;;;9.50;99.90;;;;;;5052691;28;20397;-52
2021/05/25 00:27:09;;;;;;;4.32;1.10;;;9.40;99.90;;;;;;5041924;28;20872;-51
2021/05/25 00:29:34;;;;;;;3.75;0.98;;;9.40;99.90;;;;;;5053889;28;20381;-52
2021/05/25 00:32:00;;;;;;;3.40;1.00;;;9.30;99.90;;;;;;5051482;28;20378;-51
2021/05/25 00:34:26;;;;;;;4.30;1.10;;;9.20;99.90;;;;;;5063023;28;20861;-51
2021/05/25 00:36:51;;;;;;;5.30;1.20;;;9.20;99.90;;;;;;5071758;28;20418;-56
2021/05/25 00:39:17;;;;;;;4.57;1.00;;;9.20;99.90;;;;;;5068784;28;20411;-59
2021/05/25 00:41:43;;;;;;;4.70;0.90;;;9.30;99.90;;;;;;5071116;28;20432;-51
2021/05/25 00:44:09;;;;;;;4.00;1.13;;;9.30;99.90;;;;;;5071299;28;20384;-51
2021/05/25 00:46:36;;;;;;;3.65;0.90;;;9.10;99.90;;;;;;5054586;28;20443;-51
2021/05/25 00:49:04;;;;;;;5.22;1.00;;;9.00;99.90;;;;;;5051232;28;20495;-51
2021/05/25 00:51:29;;;;;;;3.60;1.00;;;9.00;99.90;;;;;;5064877;28;20491;-56
2021/05/25 00:53:55;;;;;;;5.13;1.17;;;9.00;99.90;;;;;;5062907;28;21094;-51
2021/05/25 00:56:21;;;;;;;3.53;1.10;;;9.00;99.90;;;;;;5062010;28;20414;-51
2021/05/25 00:58:48;;;;;;;4.10;1.10;;;9.10;99.90;;;;;;5055797;28;20413;-51
2021/05/25 01:01:13;;;;;;;4.50;1.00;;;9.10;99.90;;;;;;5069888;28;20437;-51
2021/05/25 01:03:39;;;;;;;4.50;1.10;;;9.10;99.90;;;;;;5070684;28;20460;-51
2021/05/25 01:06:05;;;;;;;4.73;1.40;;;9.10;99.90;;;;;;5055184;28;20390;-51
2021/05/25 01:08:32;;;;;;;4.53;1.10;;;9.00;99.90;;;;;;5050245;28;20397;-51
2021/05/25 01:11:03;;;;;;;3.40;0.90;;;8.90;99.90;;;;;;5057643;28;20426;-51
2021/05/25 01:13:30;;;;;;;3.70;1.20;;;8.80;99.90;;;;;;5063928;28;20413;-51
2021/05/25 01:15:57;;;;;;;3.55;1.00;;;8.70;99.90;;;;;;5055045;28;20379;-51
2021/05/25 01:18:23;;;;;;;4.10;1.00;;;8.70;99.90;;;;;;5043601;28;20779;-52
2021/05/25 01:20:50;;;;;;;4.93;0.90;;;8.70;99.90;;;;;;5050772;28;20413;-51
2021/05/25 01:23:16;;;;;;;4.68;1.10;;;8.80;99.90;;;;;;5063578;28;20922;-60
2021/05/25 01:25:46;;;;;;;3.50;0.90;;;8.90;99.90;;;;;;5050532;28;20851;-51
2021/05/25 01:28:13;;;;;;;4.63;0.93;;;8.90;99.90;;;;;;5061662;28;20384;-51
2021/05/25 01:30:45;;;;;;;4.30;1.00;;;9.00;99.90;;;;;;5069575;28;20387;-51
2021/05/25 01:33:12;;;;;;;3.72;1.00;;;9.10;99.90;;;;;;5068388;28;20391;-51
2021/05/25 01:35:38;;;;;;;3.47;0.98;;;9.10;99.90;;;;;;5049751;28;20388;-54
2021/05/25 01:38:05;;;;;;;3.70;1.10;;;9.20;99.90;;;;;;5050405;28;20381;-51
2021/05/25 01:40:31;;;;;;;4.80;1.20;;;9.10;99.90;;;;;;5059699;28;20408;-51
2021/05/25 01:42:58;;;;;;;6.80;1.10;;;9.10;99.90;;;;;;5070360;28;20390;-51
2021/05/25 01:45:26;;;;;;;4.50;1.15;;;9.10;99.90;;;;;;5065630;28;20381;-51
2021/05/25 01:47:53;;;;;;;3.93;1.20;;;9.00;99.90;;;;;;5050385;28;20412;-51
2021/05/25 01:50:19;;;;;;;4.10;1.07;;;9.00;99.90;;;;;;5056555;28;20424;-60
2021/05/25 01:52:48;;;;;;;5.20;1.42;;;9.00;99.90;;;;;;5069093;28;20403;-53
2021/05/25 01:55:33;;;;;;;4.03;1.10;;;9.00;99.90;;;;;;5070454;28;20424;-51
2021/05/25 01:58:05;;;;;;;6.68;1.10;;;9.00;99.90;;;;;;5062073;28;20404;-51
2021/05/25 02:00:32;;;;;;;3.70;1.00;;;9.00;99.90;;;;;;5049228;28;20940;-51
2021/05/25 02:02:57;;;;;;;6.30;1.30;;;9.00;99.90;;;;;;5049987;28;20382;-52
2021/05/25 02:05:23;;;;;;;5.20;1.20;;;9.00;99.90;;;;;;5062953;28;20375;-51
2021/05/25 02:07:50;;;;;;;4.85;1.20;;;9.00;99.90;;;;;;5069990;28;20395;-51
2021/05/25 02:10:40;;;;;;;5.50;1.23;;;9.00;99.90;;;;;;5069869;28;20418;-60
2021/05/25 02:13:08;;;;;;;4.43;1.50;;;9.10;99.90;;;;;;5055340;28;20385;-51
2021/05/25 02:15:34;;;;;;;4.70;1.00;;;9.20;99.90;;;;;;5047563;28;20428;-51
2021/05/25 02:18:09;;;;;;;6.32;1.35;;;9.30;99.90;;;;;;5061937;28;20463;-52
2021/05/25 02:20:35;;;;;;;6.15;1.20;;;9.20;99.90;;;;;;5054373;28;20685;-51
2021/05/25 02:23:02;;;;;;;6.13;1.20;;;9.30;99.90;;;;;;5050050;28;20865;-52
2021/05/25 02:25:29;;;;;;;5.00;1.20;;;9.40;99.90;;;;;;5059574;28;20793;-53
2021/05/25 02:27:55;;;;;;;4.80;1.30;;;9.40;99.90;;;;;;5070278;28;20384;-52
2021/05/25 02:30:21;;;;;;;4.03;1.00;;;9.30;99.90;;;;;;5035816;28;20393;-52
2021/05/25 02:32:48;;;;;;;4.10;1.20;;;9.40;99.90;;;;;;5067448;28;20372;-52
2021/05/25 02:35:14;;;;;;;4.00;1.20;;;9.40;99.90;;;;;;5069986;28;20403;-51
2021/05/25 02:37:39;;;;;;;5.50;1.60;;;9.30;99.90;;;;;;5069158;28;20850;-51
2021/05/25 02:40:06;;;;;;;4.80;1.30;;;9.20;99.90;;;;;;5052564;28;20405;-52
2021/05/25 02:42:32;;;;;;;5.32;1.50;;;9.20;99.90;;;;;;5049046;28;20851;-52
2021/05/25 02:44:58;;;;;;;5.20;1.40;;;9.10;99.90;;;;;;5056542;28;20390;-51
2021/05/25 02:47:24;;;;;;;4.10;1.10;;;9.00;99.90;;;;;;5069066;28;20868;-51
2021/05/25 02:49:49;;;;;;;6.50;1.40;;;9.00;99.90;;;;;;5056822;28;20435;-51
2021/05/25 02:52:15;;;;;;;7.03;1.40;;;8.90;99.90;;;;;;5051939;28;20736;-59
2021/05/25 02:54:42;;;;;;;5.00;1.30;;;8.90;99.90;;;;;;5053065;28;20703;-53
2021/05/25 02:57:08;;;;;;;5.82;1.30;;;8.90;99.90;;;;;;5068528;28;20401;-51
2021/05/25 02:59:35;;;;;;;4.03;1.20;;;8.90;99.90;;;;;;5054412;28;20406;-52
2021/05/25 03:02:01;;;;;;;5.30;1.20;;;8.90;99.90;;;;;;5053692;28;20486;-51
2021/05/25 03:04:26;;;;;;;5.22;1.30;;;9.00;99.90;;;;;;5054676;28;20433;-52
2021/05/25 03:06:53;;;;;;;4.03;1.20;;;9.00;99.90;;;;;;5073384;28;20390;-52
2021/05/25 03:09:18;;;;;;;3.78;1.10;;;9.00;99.90;;;;;;5073432;28;20853;-61
2021/05/25 03:11:45;;;;;;;3.42;1.20;;;7.80;99.90;;;;;;5071916;28;20390;-51
2021/05/25 03:14:11;;;;;;;5.10;1.10;;;9.00;99.90;;;;;;5053319;28;20453;-52
2021/05/25 03:16:37;;;;;;;5.40;1.20;;;9.00;99.90;;;;;;5052454;28;20389;-51
2021/05/25 03:19:03;;;;;;;5.20;1.30;;;7.50;99.90;;;;;;5052691;28;20424;-51
2021/05/25 03:21:29;;;;;;;4.68;1.20;;;8.80;99.90;;;;;;5069008;28;20564;-52
2021/05/25 03:23:55;;;;;;;5.68;1.20;;;8.70;99.90;;;;;;5073532;28;20415;-52
2021/05/25 03:26:22;;;;;;;7.20;1.60;;;8.60;99.90;;;;;;5072417;28;20375;-55
2021/05/25 03:28:48;;;;;;;4.55;1.00;;;8.50;99.90;;;;;;5053510;28;20717;-53
2021/05/25 03:31:14;;;;;;;4.70;0.85;;;8.50;99.90;;;;;;5053326;28;20385;-51
2021/05/25 03:33:39;;;;;;;4.20;1.50;;;8.50;99.90;;;;;;5057011;28;20383;-51
2021/05/25 03:36:07;;;;;;;6.07;1.57;;;8.50;99.90;;;;;;5073227;28;20380;-54
2021/05/25 03:38:33;;;;;;;3.65;0.70;;;8.40;99.90;;;;;;5070974;28;20418;-52
2021/05/25 03:40:59;;;;;;;4.50;1.10;;;8.40;99.90;;;;;;5060397;28;20445;-51
2021/05/25 03:43:24;;;;;;;4.07;0.70;;;8.30;99.90;;;;;;5050929;28;20451;-52
2021/05/25 03:45:50;;;;;;;4.57;0.85;;;8.30;99.90;;;;;;5053633;28;20867;-51
2021/05/25 03:48:17;;;;;;;4.60;0.90;;;8.30;99.90;;;;;;5054611;28;20440;-51
2021/05/25 03:50:44;;;;;;;4.70;1.00;;;8.40;99.90;;;;;;5072175;28;20383;-57
2021/05/25 03:53:10;;;;;;;3.90;0.80;;;8.40;99.90;;;;;;5073168;28;20384;-52
2021/05/25 04:00:52;;;;;;;5.93;1.08;;;8.50;99.90;;;;;;5052216;28;20495;-51
2021/05/25 04:03:18;;;;;;;5.40;1.30;;;8.50;99.90;;;;;;5068710;28;20380;-60
2021/05/25 04:05:46;;;;;;;4.90;0.93;;;8.50;99.90;;;;;;5071856;28;20503;-51
2021/05/25 04:08:12;;;;;;;4.60;0.90;;;8.50;99.90;;;;;;5070667;28;20379;-51
2021/05/25 04:10:37;;;;;;;5.17;1.20;;;8.70;99.90;;;;;;5051833;28;21351;-51
2021/05/25 04:13:03;;;;;;;5.70;1.38;;;8.90;99.90;;;;;;5052295;28;20928;-51
2021/05/25 04:15:29;;;;;;;7.72;0.90;;;9.00;99.90;;;;;;5069684;28;20374;-52
2021/05/25 04:17:55;;;;;;;4.25;0.80;;;9.00;99.90;;;;;;5054457;28;20404;-51
2021/05/25 04:20:23;;;;;;;5.50;1.20;;;9.30;99.90;;;;;;5063001;28;20417;-61
2021/05/25 04:22:49;;;;;;;5.43;0.93;;;9.30;99.90;;;;;;5050840;28;20481;-51
2021/05/25 04:25:15;;;;;;;5.18;1.00;;;9.40;99.90;;;;;;5053548;28;20397;-51
2021/05/25 04:27:41;;;;;;;3.72;1.00;;;9.30;99.90;;;;;;5052406;28;20385;-51
2021/05/25 04:30:09;;;;;;;4.53;1.00;;;9.10;99.90;;;;;;5055202;28;20938;-52
2021/05/25 04:32:36;;;;;;;3.20;0.90;;;9.10;99.90;;;;;;5055904;28;20392;-51
2021/05/25 04:35:03;;;;;;;3.33;0.80;;;9.00;99.90;;;;;;5053717;28;20369;-51
2021/05/25 04:37:29;;;;;;;3.63;0.90;;;9.10;99.90;;;;;;5052731;28;20397;-52
2021/05/25 04:39:54;;;;;;;5.20;1.00;;;9.00;99.90;;;;;;5054655;28;20411;-51
2021/05/25 04:42:20;;;;;;;5.40;0.90;;;9.10;99.90;;;;;;5065070;28;20741;-60
2021/05/25 04:44:46;;;;;;;4.05;1.00;;;9.10;99.90;;;;;;5071270;28;20741;-55
2021/05/25 04:47:11;;;;;;;3.90;0.80;;;9.10;99.90;;;;;;5056353;28;20390;-52
2021/05/25 04:49:39;;;;;;;4.50;0.82;;;9.30;99.90;;;;;;5055404;28;20745;-51
2021/05/25 04:52:06;;;;;;;3.83;0.70;;;9.50;99.90;;;;;;5071532;28;20379;-51
2021/05/25 04:54:31;;;;;;;6.07;0.80;;;9.40;99.90;;;;;;5070933;28;20453;-51
2021/05/25 04:56:57;;;;;;;3.17;0.63;;;9.40;99.90;;;;;;5054276;28;20415;-51
2021/05/25 04:59:23;;;;;;;5.30;0.80;;;9.80;99.90;;;;;;5050904;28;20475;-52
2021/05/25 05:01:49;;;;;;;3.70;0.70;;;10.80;99.90;;;;;;5070983;28;21075;-50
2021/05/25 05:04:14;;;;;;;3.85;0.90;;;11.10;99.90;;;;;;5071385;28;20391;-51
2021/05/25 05:06:40;;;;;;;3.78;0.80;;;10.70;99.90;;;;;;5059110;28;20943;-51
2021/05/25 05:09:06;;;;;;;3.20;0.60;;;10.20;99.90;;;;;;5033580;28;20744;-51
2021/05/25 05:11:32;;;;;;;6.40;1.00;;;10.10;99.90;;;;;;5050200;28;20393;-52
2021/05/25 05:13:58;;;;;;;4.40;1.00;;;10.20;99.90;;;;;;5066417;28;20380;-52
2021/05/25 05:16:24;;;;;;;4.10;0.60;;;10.20;99.90;;;;;;5070187;28;20383;-51
2021/05/25 05:18:50;;;;;;;3.60;0.70;;;10.00;99.90;;;;;;5066590;28;20409;-51
2021/05/25 05:21:16;;;;;;;3.90;0.60;;;10.00;99.90;;;;;;5051054;28;20551;-52
2021/05/25 05:23:41;;;;;;;5.15;0.77;;;10.00;99.90;;;;;;5050200;28;20382;-51
2021/05/25 05:26:08;;;;;;;4.40;1.10;;;10.40;99.90;;;;;;5051305;28;20481;-51
2021/05/25 05:28:34;;;;;;;3.80;0.80;;;10.90;99.90;;;;;;5050179;28;20381;-53
2021/05/25 05:31:00;;;;;;;4.10;0.90;;;11.90;99.90;;;;;;5050856;28;20389;-51
2021/05/25 05:33:27;;;;;;;3.30;0.77;;;11.90;99.90;;;;;;5049576;28;20448;-51
2021/05/25 05:35:53;;;;;;;4.00;0.90;;;11.60;99.90;;;;;;5050350;28;20380;-53
2021/05/25 05:38:18;;;;;;;4.27;0.80;;;11.70;99.90;;;;;;5050723;28;20381;-51
2021/05/25 05:40:44;;;;;;;4.05;0.90;;;11.90;99.90;;;;;;5050530;28;20740;-51
2021/05/25 05:43:10;;;;;;;3.40;0.80;;;12.00;99.90;;;;;;5070734;28;20435;-52
2021/05/25 05:45:36;;;;;;;4.00;0.70;;;12.00;99.90;;;;;;5057226;28;20425;-52
2021/05/25 05:48:02;;;;;;;3.20;0.60;;;11.60;99.90;;;;;;5050247;28;20416;-53
2021/05/25 05:50:28;;;;;;;4.90;0.70;;;11.00;99.90;;;;;;5050040;28;20392;-52
2021/05/25 05:52:54;;;;;;;3.10;0.60;;;11.00;99.90;;;;;;5038122;28;20389;-51
2021/05/25 05:55:19;;;;;;;3.50;0.80;;;11.30;99.90;;;;;;5049781;28;20895;-60
2021/05/25 05:57:47;;;;;;;3.43;0.93;;;11.80;99.90;;;;;;5049407;28;20499;-52
2021/05/25 06:00:14;;;;;;;3.80;0.70;;;12.30;99.90;;;;;;5050128;28;20401;-51
2021/05/25 06:02:40;;;;;;;5.00;1.00;;;12.30;99.90;;;;;;5049103;28;20393;-53
2021/05/25 06:05:06;;;;;;;3.30;0.65;;;11.90;99.90;;;;;;5049892;28;20389;-53
2021/05/25 06:07:32;;;;;;;5.60;0.80;;;11.80;99.90;;;;;;5047668;28;20397;-51
2021/05/25 06:09:59;;;;;;;4.20;0.60;;;11.40;99.90;;;;;;5049531;28;20465;-50
2021/05/25 06:12:25;;;;;;;4.90;0.80;;;11.10;99.90;;;;;;5049074;28;20393;-54
2021/05/25 06:14:51;;;;;;;4.70;0.80;;;11.00;99.90;;;;;;5048412;28;20388;-51
2021/05/25 06:17:16;;;;;;;4.38;0.98;;;11.00;99.90;;;;;;5050109;28;20465;-50
2021/05/25 06:19:43;;;;;;;4.30;0.70;;;11.10;99.90;;;;;;5009499;28;20886;-50
2021/05/25 06:22:10;;;;;;;3.38;0.70;;;11.20;99.90;;;;;;5010561;28;20393;-51
2021/05/25 06:24:35;;;;;;;3.60;0.90;;;11.00;99.90;;;;;;5009189;28;20453;-52
2021/05/25 06:27:01;;;;;;;3.70;0.90;;;11.40;99.90;;;;;;5009508;28;20419;-51
2021/05/25 06:29:27;;;;;;;3.30;0.60;;;11.50;99.90;;;;;;5008993;28;20400;-51
2021/05/25 06:31:58;;;;;;;4.10;0.80;;;11.50;99.90;;;;;;5024937;28;20381;-51
2021/05/25 06:34:24;;;;;;;4.20;0.80;;;11.70;99.90;;;;;;5008951;28;20379;-59
2021/05/25 06:36:50;;;;;;;3.50;0.70;;;11.80;99.90;;;;;;5010253;28;20385;-51
2021/05/25 06:39:15;;;;;;;3.43;0.77;;;11.90;99.90;;;;;;5009512;28;20405;-51
2021/05/25 06:41:41;;;;;;;3.95;0.80;;;11.90;99.90;;;;;;5009566;28;20515;-51
2021/05/25 06:44:07;;;;;;;9.40;1.00;;;12.20;99.90;;;;;;5009706;28;20515;-51
2021/05/25 06:46:32;;;;;;;4.88;0.80;;;12.20;99.90;;;;;;5009039;28;20389;-53
2021/05/25 06:48:58;;;;;;;4.85;1.00;;;13.30;99.90;;;;;;5009897;28;20719;-52
2021/05/25 06:51:26;;;;;;;3.40;0.80;;;14.40;99.90;;;;;;5009193;28;20498;-59
2021/05/25 06:53:51;;;;;;;8.30;0.80;;;15.10;99.90;;;;;;5009697;28;20850;-52
2021/05/25 06:56:17;;;;;;;3.83;0.80;;;15.40;99.90;;;;;;5009687;28;20405;-51
2021/05/25 06:58:43;;;;;;;7.40;1.20;;;15.80;98.90;;;;;;5008534;28;20385;-52
2021/05/25 07:01:08;;;;;;;4.40;0.80;;;15.40;99.50;;;;;;5024427;28;20428;-51
2021/05/25 07:03:34;;;;;;;3.67;0.70;;;15.70;99.60;;;;;;5008817;28;21038;-52
2021/05/25 07:05:59;;;;;;;4.70;1.13;;;15.70;97.30;;;;;;5009031;28;20583;-52
2021/05/25 07:08:25;;;;;;;4.20;0.70;;;15.30;96.80;;;;;;5008820;28;20870;-60
2021/05/25 07:10:51;;;;;;;3.90;0.80;;;14.60;97.90;;;;;;4990144;28;20863;-51
2021/05/25 07:13:17;;;;;;;4.90;1.20;;;14.00;99.60;;;;;;4989916;28;20374;-52
2021/05/25 07:15:42;;;;;;;4.43;0.90;;;14.00;99.90;;;;;;4989016;28;21031;-51
2021/05/25 07:18:08;;;;;;;8.05;0.90;;;13.90;99.70;;;;;;5009362;28;20508;-51
2021/05/25 07:20:34;;;;;;;3.50;0.70;;;14.50;99.90;;;;;;5047954;28;20417;-52
2021/05/25 07:23:00;;;;;;;3.60;0.80;;;14.20;99.90;;;;;;5049253;28;20376;-52
2021/05/25 07:25:27;;;;;;;4.20;0.80;;;14.90;98.90;;;;;;5048317;28;20724;-60
2021/05/25 07:27:53;;;;;;;9.90;1.10;;;14.80;99.60;;;;;;5049256;28;20382;-51
2021/05/25 07:30:20;;;;;;;5.13;0.98;;;14.60;98.50;;;;;;5046016;28;20401;-51
2021/05/25 07:32:46;;;;;;;3.55;0.68;;;14.70;98.80;;;;;;5048094;28;20435;-51
2021/05/25 07:35:12;;;;;;;4.60;0.90;;;14.30;98.60;;;;;;5048958;28;20848;-51
2021/05/25 07:37:39;;;;;;;4.55;0.60;;;14.30;98.50;;;;;;5047416;28;20464;-54
2021/05/25 07:40:06;;;;;;;4.90;0.70;;;14.30;98.70;;;;;;5051455;28;20455;-52
2021/05/25 07:42:32;;;;;;;4.03;0.70;;;14.30;97.70;;;;;;5052232;28;20381;-51
2021/05/25 07:44:58;;;;;;;7.30;0.90;;;13.70;99.90;;;;;;5052131;28;21001;-51
2021/05/25 07:47:26;;;;;;;3.80;0.80;;;14.10;99.10;;;;;;5052288;28;20377;-59
2021/05/25 07:49:52;;;;;;;6.10;0.80;;;13.50;99.20;;;;;;5052436;28;20397;-51
2021/05/25 07:52:18;;;;;;;4.90;0.90;;;13.10;99.90;;;;;;5052419;28;20388;-50
2021/05/25 07:54:44;;;;;;;5.40;0.90;;;13.00;99.90;;;;;;5050758;28;20386;-51
2021/05/25 07:57:09;;;;;;;3.47;0.88;;;12.90;99.90;;;;;;5052146;28;20385;-52
2021/05/25 07:59:36;;;;;;;4.55;0.70;;;12.90;99.90;;;;;;5051254;28;20425;-52
2021/05/25 08:02:02;;;;;;;4.60;0.90;;;12.80;99.90;;;;;;5052168;28;20386;-52
2021/05/25 08:04:28;;;;;;;5.70;1.05;;;12.90;99.90;;;;;;5051644;28;20388;-53
2021/05/25 08:06:53;;;;;;;7.80;0.80;;;13.60;99.90;;;;;;5051816;28;20377;-52
2021/05/25 08:09:19;;;;;;;4.80;1.40;;;13.90;99.00;;;;;;5052255;28;20386;-52
2021/05/25 08:11:44;;;;;;;5.53;1.00;;;13.80;99.60;;;;;;5051111;28;20378;-52
2021/05/25 08:14:11;;;;;;;3.80;1.03;;;13.40;99.60;;;;;;5039388;28;20393;-52
2021/05/25 08:16:39;;;;;;;4.80;0.70;;;13.50;99.20;;;;;;5051007;28;20385;-52
2021/05/25 08:19:27;;;;;;;5.40;1.08;;;15.10;97.80;;;;;;5051488;28;20455;-52
2021/05/25 08:21:52;;;;;;;5.90;0.98;;;14.60;96.30;;;;;;5051983;28;20472;-52
2021/05/25 08:24:18;;;;;;;3.70;0.90;;;14.00;98.40;;;;;;5051536;28;20460;-52
2021/05/25 08:26:44;;;;;;;5.00;1.10;;;13.90;98.00;;;;;;5051075;28;20447;-52
2021/05/25 08:29:09;;;;;;;4.50;0.70;;;14.00;98.70;;;;;;5066931;28;20715;-53
2021/05/25 08:31:35;;;;;;;4.43;0.70;;;13.20;97.50;;;;;;5050553;28;20392;-52
2021/05/25 08:34:02;;;;;;;3.83;0.75;;;13.40;98.60;;;;;;5051449;28;20374;-52
2021/05/25 08:36:30;;;;;;;3.40;0.80;;;13.70;97.10;;;;;;5050994;28;20393;-52
2021/05/25 08:38:56;;;;;;;3.65;0.80;;;13.50;97.60;;;;;;5051566;28;20480;-52
2021/05/25 08:41:22;;;;;;;3.87;0.83;;;13.50;98.70;;;;;;5051322;28;20503;-52
2021/05/25 08:43:48;;;;;;;4.18;0.70;;;13.30;98.60;;;;;;5050830;28;20384;-52
2021/05/25 08:46:14;;;;;;;4.05;0.70;;;13.60;98.60;;;;;;5051149;28;20392;-52
2021/05/25 08:48:41;;;;;;;4.18;1.00;;;13.70;98.30;;;;;;5050404;28;20390;-52
2021/05/25 08:51:07;;;;;;;4.00;0.75;;;13.40;98.60;;;;;;5050888;28;20398;-52
2021/05/25 08:53:33;;;;;;;3.50;0.85;;;13.10;99.40;;;;;;5050668;28;20476;-55
2021/05/25 08:55:59;;;;;;;3.70;0.80;;;12.70;99.90;;;;;;5051056;28;20508;-52
2021/05/25 08:58:26;;;;;;;3.70;0.90;;;12.50;99.90;;;;;;5050909;28;20401;-60
2021/05/25 09:00:53;;;;;;;4.25;0.80;;;12.50;99.90;;;;;;5049852;28;20398;-52
2021/05/25 09:03:20;;;;;;;4.10;0.80;;;12.40;99.90;;;;;;5050922;28;20472;-53
2021/05/25 09:06:06;;;;;;;3.58;0.65;;;12.00;99.90;;;;;;5050137;28;20392;-51
2021/05/25 09:08:32;;;;;;;5.30;0.90;;;11.70;99.90;;;;;;5049770;28;20381;-56
2021/05/25 09:11:08;;;;;;;3.50;0.70;;;11.80;99.90;;;;;;5049399;28;20411;-52
2021/05/25 09:13:34;;;;;;;4.28;0.80;;;11.70;99.90;;;;;;5049741;28;20723;-49
2021/05/25 09:16:02;;;;;;;5.15;1.00;;;11.80;99.90;;;;;;5050720;28;20388;-49
2021/05/25 09:18:31;;;;;;;5.22;0.80;;;12.10;99.90;;;;;;5049561;28;20488;-56
2021/05/25 09:20:58;;;;;;;4.15;0.70;;;13.10;99.90;;;;;;5050611;28;20413;-52
2021/05/25 09:23:45;;;;;;;5.40;0.80;;;13.10;99.90;;;;;;5050758;28;20409;-60
2021/05/25 09:26:28;;;;;;;4.18;1.10;;;12.50;99.90;;;;;;5050641;28;20457;-52
2021/05/25 09:29:08;;;;;;;4.80;0.70;;;12.20;99.90;;;;;;5050681;28;20377;-52
2021/05/25 09:31:46;;;;;;;14.00;0.90;;;12.30;99.90;;;;;;5049671;28;20394;-52
2021/05/25 09:34:20;;;;;;;5.25;1.00;;;12.40;99.90;;;;;;5048249;28;20482;-52
2021/05/25 09:36:55;;;;;;;3.75;0.90;;;12.20;99.90;;;;;;5049548;28;20447;-52
2021/05/25 09:39:21;;;;;;;5.88;1.00;;;12.40;99.90;;;;;;5065596;28;20408;-52
2021/05/25 09:42:01;;;;;;;4.50;0.90;;;12.50;99.90;;;;;;5049224;28;21025;-52
2021/05/25 09:44:28;;;;;;;5.30;1.00;;;12.50;99.90;;;;;;5050201;28;20875;-60
2021/05/25 09:46:54;;;;;;;4.30;1.00;;;12.90;99.90;;;;;;5048964;28;20472;-51
2021/05/25 09:49:22;;;;;;;3.85;0.70;;;12.90;99.90;;;;;;5050262;28;20503;-52
2021/05/25 09:52:01;;;;;;;3.47;0.70;;;13.90;99.90;;;;;;5049328;28;20373;-52
2021/05/25 09:54:28;;;;;;;3.80;0.80;;;14.20;99.80;;;;;;5050179;28;20423;-61
2021/05/25 09:57:00;;;;;;;6.70;1.10;;;14.60;99.30;;;;;;5049570;28;20389;-52
2021/05/25 09:59:39;;;;;;;4.70;1.00;;;13.90;99.90;;;;;;5049685;28;20967;-60
2021/05/25 10:02:23;;;;;;;3.50;0.80;;;13.30;99.90;;;;;;5049026;28;20438;-52
2021/05/25 10:04:59;;;;;;;3.80;0.80;;;13.30;99.90;;;;;;5044507;28;21522;-52
2021/05/25 10:07:27;;;;;;;5.20;1.50;;;13.10;99.90;;;;;;5049630;28;20390;-52
2021/05/25 10:09:55;;;;;;;4.45;0.80;;;13.00;99.90;;;;;;5049932;28;20831;-51
2021/05/25 10:12:22;;;;;;;4.20;0.77;;;12.70;99.90;;;;;;5049441;28;20374;-53
2021/05/25 10:14:49;;;;;;;3.92;0.80;;;12.80;99.90;;;;;;5049144;28;20866;-52
2021/05/25 10:17:31;;;;;;;4.70;1.00;;;13.00;99.90;;;;;;5049774;28;20377;-52
2021/05/25 10:19:57;;;;;;;5.00;1.08;;;13.70;99.90;;;;;;5049946;28;20498;-52
2021/05/25 10:22:25;;;;;;;6.00;1.10;;;13.90;99.90;;;;;;5048599;28;21394;-57
2021/05/25 10:24:52;;;;;;;4.50;0.90;;;14.10;99.60;;;;;;5048455;28;20421;-54
2021/05/25 10:27:18;;;;;;;4.13;0.90;;;13.80;99.30;;;;;;5049809;28;20389;-52
2021/05/25 10:29:44;;;;;;;4.40;1.00;;;14.00;99.90;;;;;;5048537;28;20386;-53
2021/05/25 10:32:20;;;;;;;5.80;1.10;;;13.50;99.90;;;;;;5049243;28;20789;-53
2021/05/25 10:34:48;;;;;;;4.30;1.25;;;12.60;99.90;;;;;;5046847;28;20382;-51
2021/05/25 10:37:15;;;;;;;6.85;1.30;;;12.10;99.90;;;;;;5048133;28;20866;-53
2021/05/25 10:39:44;;;;;;;5.22;1.00;;;12.20;99.90;;;;;;5048648;28;20416;-54
2021/05/25 10:42:19;;;;;;;5.50;1.40;;;12.50;99.90;;;;;;5049331;28;20401;-52
2021/05/25 10:45:09;;;;;;;5.50;1.30;;;12.40;99.90;;;;;;5049996;28;20405;-52
2021/05/25 10:47:49;;;;;;;4.60;1.27;;;12.50;99.90;;;;;;5055674;28;20407;-51
2021/05/25 10:52:55;;;;;;;4.80;1.20;;;12.30;99.90;;;;;;5064482;28;20420;-51
2021/05/25 10:55:32;;;;;;;4.50;0.80;;;12.60;99.90;;;;;;5045896;28;20402;-51
2021/05/25 10:57:59;;;;;;;5.07;1.40;;;12.80;99.90;;;;;;5049260;28;20404;-51
2021/05/25 11:00:38;;;;;;;4.47;1.00;;;13.00;99.90;;;;;;5054189;28;20415;-52
2021/05/25 11:03:14;;;;;;;4.22;1.00;;;13.60;99.90;;;;;;5049471;28;20389;-52
2021/05/25 11:05:42;;;;;;;4.75;1.60;;;13.60;99.90;;;;;;5048716;28;20430;-51
2021/05/25 11:08:08;;;;;;;4.40;0.93;;;13.80;99.90;;;;;;5049298;28;20385;-51
2021/05/25 11:10:34;;;;;;;4.60;0.90;;;14.00;99.90;;;;;;5048890;28;20894;-61
2021/05/25 11:13:15;;;;;;;3.97;1.27;;;14.20;99.90;;;;;;5050776;28;20490;-51
2021/05/25 11:16:01;;;;;;;5.47;0.90;;;13.90;99.90;;;;;;5051797;28;20885;-51
2021/05/25 11:19:17;;;;;;;4.70;0.90;;;12.70;99.90;;;;;;5052572;28;20907;-64
2021/05/25 11:21:39;;;;;;;5.57;1.40;;;12.00;99.90;;;;;;5046744;28;20432;-51
2021/05/25 11:24:27;;;;;;;3.67;0.80;;;12.10;99.90;;;;;;5053012;28;20481;-51
2021/05/25 11:27:16;;;;;;;3.58;0.80;;;12.90;99.90;;;;;;5052752;28;20397;-51
2021/05/25 11:29:52;;;;;;;5.22;1.10;;;13.60;99.90;;;;;;5051724;28;20398;-51
2021/05/25 11:32:20;;;;;;;3.40;0.80;;;13.70;99.90;;;;;;5052882;28;20408;-51
2021/05/25 11:34:53;;;;;;;3.50;0.90;;;14.00;99.90;;;;;;5051811;28;20393;-52
2021/05/25 11:37:19;;;;;;;6.20;1.17;;;14.20;99.90;;;;;;5052427;28;20386;-52
2021/05/25 11:39:46;;;;;;;4.35;0.90;;;14.30;99.90;;;;;;5052120;28;20405;-53
2021/05/25 11:42:12;;;;;;;4.50;0.70;;;14.90;99.90;;;;;;5051712;28;20385;-52
2021/05/25 11:44:43;;;;;;;4.70;1.00;;;14.90;99.90;;;;;;5051648;28;20377;-52
2021/05/25 11:47:10;;;;;;;3.77;0.90;;;15.00;99.90;;;;;;5051001;28;20455;-55
2021/05/25 11:49:42;;;;;;;10.40;1.40;;;15.00;99.20;;;;;;5052046;28;20409;-52
2021/05/25 11:52:39;;;;;;;5.00;0.90;;;14.80;99.40;;;;;;5052472;28;20381;-52
2021/05/25 11:55:08;;;;;;;3.80;0.80;;;14.90;97.90;;;;;;5052534;28;20393;-52
2021/05/25 11:57:37;;;;;;;4.97;1.17;;;14.90;97.90;;;;;;5051637;28;20391;-52
2021/05/25 12:00:09;;;;;;;6.70;1.00;;;15.10;99.90;;;;;;5052247;28;20405;-52
2021/05/25 12:02:35;;;;;;;4.22;1.00;;;15.20;99.90;;;;;;5033913;28;20427;-52
2021/05/25 12:05:05;;;;;;;4.40;1.00;;;15.20;98.40;;;;;;5052268;28;20449;-52
2021/05/25 12:07:31;;;;;;;3.92;0.98;;;15.30;98.00;;;;;;5051214;28;20451;-62
2021/05/25 12:09:59;;;;;;;6.07;1.10;;;15.70;98.60;;;;;;5050362;28;20393;-52
2021/05/25 12:12:26;;;;;;;4.07;1.00;;;15.80;95.90;;;;;;5051984;28;20476;-51
2021/05/25 12:14:53;;;;;;;5.72;0.98;;;15.80;96.10;;;;;;5051231;28;20393;-52
2021/05/25 12:17:27;;;;;;;4.80;1.02;;;15.80;93.60;;;;;;5033708;28;20861;-57
2021/05/25 12:19:57;;;;;;;6.20;1.08;;;15.50;92.50;;;;;;5051208;28;20504;-52
2021/05/25 12:22:40;;;;;;;4.47;1.27;;;15.90;93.70;;;;;;5052023;28;20389;-51
2021/05/25 12:25:23;;;;;;;5.78;1.10;;;15.80;90.60;;;;;;5050398;28;20393;-52
2021/05/25 12:28:13;;;;;;;4.32;0.93;;;15.80;88.00;;;;;;5039733;28;20547;-52
2021/05/25 12:30:47;;;;;;;3.80;1.10;;;15.30;87.60;;;;;;5047368;28;20405;-55
2021/05/25 12:33:29;;;;;;;4.32;1.10;;;15.10;88.50;;;;;;5051863;28;20413;-56
2021/05/25 12:36:30;;;;;;;4.60;1.00;;;14.90;88.20;;;;;;5052417;28;20403;-53
2021/05/25 12:39:03;;;;;;;4.10;1.00;;;14.90;90.50;;;;;;5063190;28;20399;-52
2021/05/25 12:41:57;;;;;;;7.70;1.00;;;14.70;90.70;;;;;;5071066;28;20415;-60
2021/05/25 12:44:30;;;;;;;4.88;1.08;;;14.70;91.10;;;;;;5022213;28;20419;-52
2021/05/25 12:47:02;;;;;;;8.98;1.13;;;15.20;91.70;;;;;;5042892;28;20867;-53
2021/05/25 12:49:47;;;;;;;3.63;0.80;;;15.30;91.80;;;;;;5050786;28;20913;-62
2021/05/25 12:52:32;;;;;;;4.20;1.10;;;15.30;91.60;;;;;;5049429;28;20401;-53
2021/05/25 12:54:57;;;;;;;4.20;1.10;;;15.60;91.60;;;;;;5065467;28;20430;-50
2021/05/25 12:57:40;;;;;;;4.70;0.90;;;16.10;91.50;;;;;;5052224;28;21043;-50
2021/05/25 13:00:07;;;;;;;5.40;1.10;;;16.50;88.50;;;;;;5050336;28;20486;-51
2021/05/25 13:02:41;;;;;;;4.53;1.10;;;15.90;84.70;;;;;;5049976;28;20420;-51
2021/05/25 13:05:12;;;;;;;4.70;0.70;;;15.90;85.90;;;;;;5033326;28;20417;-51